Quantico Creek — WDF5735 — position and weather

sailwx.info

Track history (hours):
 
Tides and Currents Weather Stations Pressure Air Temp Water Temp Dewpoint Dewpoint Depression Visibility Wind Speed Wind Dir Waves Ship Positions

Quantico Creek

Owner: Vane Line Bunkering, Inc., Philadelphia, PA. More information available from US FCC via Universal Licensing System and Coast Guard Vessel Documentation Center.

Last reported at 2018-Apr-19 16:12 UTC. Time now 2018-Apr-24 22:21 UTC.
Position N 27°49' W 082°27'.

Length 31 m; draft 3.9 m.

Type: Other ship. MMSI: 367466650.

Date/timePositionNaut miles runAvg speedWind from/ knotsBaromVisibWave heightAir tempDewpointWater temp
2018-Apr-19 16:12N 27°49' W 082°27'2 9.4
2018-Apr-19 15:59N 27°51' W 082°27'4 8.7
2018-Apr-19 15:30N 27°55' W 082°27'1 0.4
2018-Apr-19 11:35N 27°57' W 082°27'0 0.1
2018-Apr-19 11:30N 27°57' W 082°27'2 4.6
2018-Apr-19 11:01N 27°54' W 082°26'4 8.8
2018-Apr-19 10:30N 27°50' W 082°27'4 7.4
2018-Apr-19 10:00N 27°48' W 082°30'4 8.4
2018-Apr-19 09:29N 27°44' W 082°32'6 1.1
2018-Apr-19 03:49N 27°38' W 082°34'0 0.0
2018-Apr-18 20:19N 27°38' W 082°34'0 0.0
2018-Apr-18 16:09N 27°38' W 082°34'0 0.0
2018-Apr-18 10:48N 27°38' W 082°34'0 0.0
2018-Apr-18 08:48N 27°38' W 082°34'0 0.0
2018-Apr-18 08:30N 27°38' W 082°34'0 0.0
2018-Apr-18 07:57N 27°38' W 082°34'0 0.0
2018-Apr-18 07:30N 27°38' W 082°34'0 0.0
2018-Apr-18 06:57N 27°38' W 082°34'0 0.0
2018-Apr-18 06:30N 27°38' W 082°34'0 0.0
2018-Apr-18 05:57N 27°38' W 082°34'0 0.0
2018-Apr-18 05:30N 27°38' W 082°34'0 0.0
2018-Apr-18 05:00N 27°38' W 082°34'0 0.0
2018-Apr-18 04:30N 27°38' W 082°34'0 0.0
2018-Apr-18 04:00N 27°38' W 082°34'0 0.0
2018-Apr-18 03:27N 27°38' W 082°34'0 0.0
2018-Apr-18 03:00N 27°38' W 082°34'10 0.3
2018-Apr-16 15:49N 27°47' W 082°31'5 7.7
2018-Apr-16 15:08N 27°51' W 082°27'1 9.1
2018-Apr-16 15:00N 27°53' W 082°27'3 5.7
2018-Apr-16 14:30N 27°55' W 082°26'0 0.0
2018-Apr-16 13:57N 27°55' W 082°26'0 0.0
2018-Apr-16 13:30N 27°55' W 082°26'0 0.0
2018-Apr-16 13:00N 27°55' W 082°26'0 0.0
2018-Apr-16 00:01N 27°55' W 082°26'0 0.1
2018-Apr-15 23:58N 27°55' W 082°26'0 0.0
2018-Apr-15 23:28N 27°55' W 082°26'0 0.0
2018-Apr-15 22:58N 27°55' W 082°26'0 0.0
2018-Apr-15 22:28N 27°55' W 082°26'0 0.0
2018-Apr-15 21:58N 27°55' W 082°26'0 0.0
2018-Apr-15 21:28N 27°55' W 082°26'0 0.0
2018-Apr-15 20:58N 27°55' W 082°26'0 0.0
2018-Apr-15 20:28N 27°55' W 082°26'0 0.0
2018-Apr-15 19:58N 27°55' W 082°26'0 0.0
2018-Apr-15 19:28N 27°55' W 082°26'0 0.0
2018-Apr-15 18:58N 27°55' W 082°26'0 0.0
2018-Apr-15 18:28N 27°55' W 082°26'0 0.0
2018-Apr-15 17:58N 27°55' W 082°26'0 0.0
2018-Apr-15 17:28N 27°55' W 082°26'0 0.0
2018-Apr-15 16:58N 27°55' W 082°26'0 0.0
2018-Apr-15 16:28N 27°55' W 082°26'1 2.3
2018-Apr-15 16:00N 27°54' W 082°26'2 4.8
2018-Apr-15 15:30N 27°57' W 082°27'0 0.0
2018-Apr-15 15:00N 27°57' W 082°27'0 0.0
2018-Apr-15 14:30N 27°57' W 082°27'0 0.0
2018-Apr-15 14:00N 27°57' W 082°27'0 0.0
2018-Apr-15 13:30N 27°57' W 082°27'0 0.0
2018-Apr-15 13:00N 27°57' W 082°27'0 0.0
2018-Apr-15 12:30N 27°57' W 082°27'0 0.0
2018-Apr-15 12:00N 27°57' W 082°27'0 0.0
2018-Apr-15 11:30N 27°57' W 082°27'3 5.3
2018-Apr-15 11:01N 27°54' W 082°26'1 1.9
2018-Apr-15 10:30N 27°55' W 082°26'0 0.0
2018-Apr-15 10:00N 27°55' W 082°26'0 0.0
2018-Apr-15 09:30N 27°55' W 082°26'0 0.0
2018-Apr-15 09:00N 27°55' W 082°26'0 0.0
2018-Apr-15 08:30N 27°55' W 082°26'0 0.0
2018-Apr-15 08:00N 27°55' W 082°26'0 0.0
2018-Apr-15 07:30N 27°55' W 082°26'0 0.0
2018-Apr-15 07:00N 27°55' W 082°26'0 0.0
2018-Apr-15 06:30N 27°55' W 082°26'0 0.0
2018-Apr-15 06:00N 27°55' W 082°26'0 0.0
2018-Apr-15 05:30N 27°55' W 082°26'0 0.0
2018-Apr-15 05:00N 27°55' W 082°26'0 0.0
2018-Apr-15 04:30N 27°55' W 082°26'0 0.0
2018-Apr-15 03:57N 27°55' W 082°26'0 0.0
2018-Apr-15 03:30N 27°55' W 082°26'0 0.0
2018-Apr-15 03:00N 27°55' W 082°26'0 0.0
2018-Apr-15 02:30N 27°55' W 082°26'0 0.0
2018-Apr-15 02:00N 27°55' W 082°26'0 0.0
2018-Apr-15 01:30N 27°55' W 082°26'0 0.0
2018-Apr-15 01:00N 27°55' W 082°26'0 0.0
2018-Apr-15 00:30N 27°55' W 082°26'0 0.0
2018-Apr-15 00:00N 27°55' W 082°26'0 0.0
2018-Apr-14 23:30N 27°55' W 082°26'0 0.0
2018-Apr-14 23:00N 27°55' W 082°26'0 0.0
2018-Apr-14 22:30N 27°55' W 082°26'0 0.0
2018-Apr-14 22:00N 27°55' W 082°26'0 0.0
2018-Apr-14 21:30N 27°55' W 082°26'0 0.0
2018-Apr-14 21:00N 27°55' W 082°26'0 0.0
2018-Apr-14 20:30N 27°55' W 082°26'0 0.0
2018-Apr-14 20:00N 27°55' W 082°26'0 0.0
2018-Apr-14 19:30N 27°55' W 082°26'0 0.0
2018-Apr-14 19:00N 27°55' W 082°26'0 0.0
2018-Apr-14 18:24N 27°55' W 082°26'0 0.0
2018-Apr-14 18:00N 27°55' W 082°26'1 1.8
2018-Apr-14 17:30N 27°54' W 082°26'2 4.5
2018-Apr-14 16:59N 27°56' W 082°27'0 0.6
2018-Apr-14 16:28N 27°57' W 082°27'0 0.0
2018-Apr-14 15:58N 27°57' W 082°27'0 0.0
2018-Apr-14 15:28N 27°57' W 082°27'0 0.0
2018-Apr-14 14:58N 27°57' W 082°27'0 0.1
2018-Apr-14 14:29N 27°57' W 082°27'0 0.1
2018-Apr-14 13:59N 27°57' W 082°27'0 0.0
2018-Apr-14 13:29N 27°57' W 082°27'0 0.0
2018-Apr-14 12:59N 27°57' W 082°27'0 0.0
2018-Apr-14 12:29N 27°57' W 082°27'0 0.1
2018-Apr-14 11:59N 27°57' W 082°27'0 0.0
2018-Apr-14 11:30N 27°57' W 082°27'3 6.1
2018-Apr-14 11:00N 27°54' W 082°26'4 8.3
2018-Apr-14 10:30N 27°50' W 082°27'4 7.7
2018-Apr-14 10:00N 27°47' W 082°30'4 7.5
2018-Apr-14 09:30N 27°44' W 082°32'6 0.1
2018-Apr-12 10:56N 27°38' W 082°34'0 0.0
2018-Apr-12 10:29N 27°38' W 082°34'0 0.0
2018-Apr-12 09:56N 27°38' W 082°34'  
Track history (hours):
 
Tides and Currents Weather Stations Pressure Air Temp Water Temp Dewpoint Dewpoint Depression Visibility Wind Speed Wind Dir Waves Ship Positions

Quantico Creek

Owner: Vane Line Bunkering, Inc., Philadelphia, PA. More information available from US FCC via Universal Licensing System and Coast Guard Vessel Documentation Center.

Last reported at 2018-Apr-19 16:12 UTC. Time now 2018-Apr-24 22:21 UTC.
Position N 27°49' W 082°27'.

Length 31 m; draft 3.9 m.

Type: Other ship. MMSI: 367466650.

Date/timePositionNaut miles runAvg speedWind from/ knotsBaromVisibWave heightAir tempDewpointWater temp
2018-Apr-19 16:12N 27°49' W 082°27'2 9.4
2018-Apr-19 15:59N 27°51' W 082°27'4 8.7
2018-Apr-19 15:30N 27°55' W 082°27'1 0.4
2018-Apr-19 11:35N 27°57' W 082°27'0 0.1
2018-Apr-19 11:30N 27°57' W 082°27'2 4.6
2018-Apr-19 11:01N 27°54' W 082°26'4 8.8
2018-Apr-19 10:30N 27°50' W 082°27'4 7.4
2018-Apr-19 10:00N 27°48' W 082°30'4 8.4
2018-Apr-19 09:29N 27°44' W 082°32'6 1.1
2018-Apr-19 03:49N 27°38' W 082°34'0 0.0
2018-Apr-18 20:19N 27°38' W 082°34'0 0.0
2018-Apr-18 16:09N 27°38' W 082°34'0 0.0
2018-Apr-18 10:48N 27°38' W 082°34'0 0.0
2018-Apr-18 08:48N 27°38' W 082°34'0 0.0
2018-Apr-18 08:30N 27°38' W 082°34'0 0.0
2018-Apr-18 07:57N 27°38' W 082°34'0 0.0
2018-Apr-18 07:30N 27°38' W 082°34'0 0.0
2018-Apr-18 06:57N 27°38' W 082°34'0 0.0
2018-Apr-18 06:30N 27°38' W 082°34'0 0.0
2018-Apr-18 05:57N 27°38' W 082°34'0 0.0
2018-Apr-18 05:30N 27°38' W 082°34'0 0.0
2018-Apr-18 05:00N 27°38' W 082°34'0 0.0
2018-Apr-18 04:30N 27°38' W 082°34'0 0.0
2018-Apr-18 04:00N 27°38' W 082°34'0 0.0
2018-Apr-18 03:27N 27°38' W 082°34'0 0.0
2018-Apr-18 03:00N 27°38' W 082°34'10 0.3
2018-Apr-16 15:49N 27°47' W 082°31'5 7.7
2018-Apr-16 15:08N 27°51' W 082°27'1 9.1
2018-Apr-16 15:00N 27°53' W 082°27'3 5.7
2018-Apr-16 14:30N 27°55' W 082°26'0 0.0
2018-Apr-16 13:57N 27°55' W 082°26'0 0.0
2018-Apr-16 13:30N 27°55' W 082°26'0 0.0
2018-Apr-16 13:00N 27°55' W 082°26'0 0.0
2018-Apr-16 00:01N 27°55' W 082°26'0 0.1
2018-Apr-15 23:58N 27°55' W 082°26'0 0.0
2018-Apr-15 23:28N 27°55' W 082°26'0 0.0
2018-Apr-15 22:58N 27°55' W 082°26'0 0.0
2018-Apr-15 22:28N 27°55' W 082°26'0 0.0
2018-Apr-15 21:58N 27°55' W 082°26'0 0.0
2018-Apr-15 21:28N 27°55' W 082°26'0 0.0
2018-Apr-15 20:58N 27°55' W 082°26'0 0.0
2018-Apr-15 20:28N 27°55' W 082°26'0 0.0
2018-Apr-15 19:58N 27°55' W 082°26'0 0.0
2018-Apr-15 19:28N 27°55' W 082°26'0 0.0
2018-Apr-15 18:58N 27°55' W 082°26'0 0.0
2018-Apr-15 18:28N 27°55' W 082°26'0 0.0
2018-Apr-15 17:58N 27°55' W 082°26'0 0.0
2018-Apr-15 17:28N 27°55' W 082°26'0 0.0
2018-Apr-15 16:58N 27°55' W 082°26'0 0.0
2018-Apr-15 16:28N 27°55' W 082°26'1 2.3
2018-Apr-15 16:00N 27°54' W 082°26'2 4.8
2018-Apr-15 15:30N 27°57' W 082°27'0 0.0
2018-Apr-15 15:00N 27°57' W 082°27'0 0.0
2018-Apr-15 14:30N 27°57' W 082°27'0 0.0
2018-Apr-15 14:00N 27°57' W 082°27'0 0.0
2018-Apr-15 13:30N 27°57' W 082°27'0 0.0
2018-Apr-15 13:00N 27°57' W 082°27'0 0.0
2018-Apr-15 12:30N 27°57' W 082°27'0 0.0
2018-Apr-15 12:00N 27°57' W 082°27'0 0.0
2018-Apr-15 11:30N 27°57' W 082°27'3 5.3
2018-Apr-15 11:01N 27°54' W 082°26'1 1.9
2018-Apr-15 10:30N 27°55' W 082°26'0 0.0
2018-Apr-15 10:00N 27°55' W 082°26'0 0.0
2018-Apr-15 09:30N 27°55' W 082°26'0 0.0
2018-Apr-15 09:00N 27°55' W 082°26'0 0.0
2018-Apr-15 08:30N 27°55' W 082°26'0 0.0
2018-Apr-15 08:00N 27°55' W 082°26'0 0.0
2018-Apr-15 07:30N 27°55' W 082°26'0 0.0
2018-Apr-15 07:00N 27°55' W 082°26'0 0.0
2018-Apr-15 06:30N 27°55' W 082°26'0 0.0
2018-Apr-15 06:00N 27°55' W 082°26'0 0.0
2018-Apr-15 05:30N 27°55' W 082°26'0 0.0
2018-Apr-15 05:00N 27°55' W 082°26'0 0.0
2018-Apr-15 04:30N 27°55' W 082°26'0 0.0
2018-Apr-15 03:57N 27°55' W 082°26'0 0.0
2018-Apr-15 03:30N 27°55' W 082°26'0 0.0
2018-Apr-15 03:00N 27°55' W 082°26'0 0.0
2018-Apr-15 02:30N 27°55' W 082°26'0 0.0
2018-Apr-15 02:00N 27°55' W 082°26'0 0.0
2018-Apr-15 01:30N 27°55' W 082°26'0 0.0
2018-Apr-15 01:00N 27°55' W 082°26'0 0.0
2018-Apr-15 00:30N 27°55' W 082°26'0 0.0
2018-Apr-15 00:00N 27°55' W 082°26'0 0.0
2018-Apr-14 23:30N 27°55' W 082°26'0 0.0
2018-Apr-14 23:00N 27°55' W 082°26'0 0.0
2018-Apr-14 22:30N 27°55' W 082°26'0 0.0
2018-Apr-14 22:00N 27°55' W 082°26'0 0.0
2018-Apr-14 21:30N 27°55' W 082°26'0 0.0
2018-Apr-14 21:00N 27°55' W 082°26'0 0.0
2018-Apr-14 20:30N 27°55' W 082°26'0 0.0
2018-Apr-14 20:00N 27°55' W 082°26'0 0.0
2018-Apr-14 19:30N 27°55' W 082°26'0 0.0
2018-Apr-14 19:00N 27°55' W 082°26'0 0.0
2018-Apr-14 18:24N 27°55' W 082°26'0 0.0
2018-Apr-14 18:00N 27°55' W 082°26'1 1.8
2018-Apr-14 17:30N 27°54' W 082°26'2 4.5
2018-Apr-14 16:59N 27°56' W 082°27'0 0.6
2018-Apr-14 16:28N 27°57' W 082°27'0 0.0
2018-Apr-14 15:58N 27°57' W 082°27'0 0.0
2018-Apr-14 15:28N 27°57' W 082°27'0 0.0
2018-Apr-14 14:58N 27°57' W 082°27'0 0.1
2018-Apr-14 14:29N 27°57' W 082°27'0 0.1
2018-Apr-14 13:59N 27°57' W 082°27'0 0.0
2018-Apr-14 13:29N 27°57' W 082°27'0 0.0
2018-Apr-14 12:59N 27°57' W 082°27'0 0.0
2018-Apr-14 12:29N 27°57' W 082°27'0 0.1
2018-Apr-14 11:59N 27°57' W 082°27'0 0.0
2018-Apr-14 11:30N 27°57' W 082°27'3 6.1
2018-Apr-14 11:00N 27°54' W 082°26'4 8.3
2018-Apr-14 10:30N 27°50' W 082°27'4 7.7
2018-Apr-14 10:00N 27°47' W 082°30'4 7.5
2018-Apr-14 09:30N 27°44' W 082°32'6 0.1
2018-Apr-12 10:56N 27°38' W 082°34'0 0.0
2018-Apr-12 10:29N 27°38' W 082°34'0 0.0
2018-Apr-12 09:56N 27°38' W 082°34'  

Dump ship's entire track history